createdAt,value
2022-08-17T00:03:15.164Z,99.90
2022-08-17T00:08:44.590Z,99.90
2022-08-17T00:14:16.667Z,99.90
2022-08-17T00:19:38.788Z,99.90
2022-08-17T00:25:00.937Z,99.90
2022-08-17T00:30:23.508Z,99.90
2022-08-17T00:35:47.325Z,99.90
2022-08-17T00:41:16.432Z,99.90
2022-08-17T00:46:42.174Z,99.90
2022-08-17T00:52:15.329Z,99.90
2022-08-17T00:57:44.764Z,99.90
2022-08-17T01:03:11.880Z,99.90
2022-08-17T01:08:35.653Z,99.90
2022-08-17T01:13:57.787Z,99.90
2022-08-17T01:19:26.996Z,99.90
2022-08-17T01:24:59.192Z,99.90
2022-08-17T01:30:59.004Z,99.90
2022-08-17T01:36:07.032Z,99.90
2022-08-17T01:41:29.359Z,99.90
2022-08-17T01:46:51.544Z,99.90
2022-08-17T01:52:15.404Z,99.90
2022-08-17T01:57:37.479Z,99.90
2022-08-17T02:02:59.629Z,99.90
2022-08-17T02:08:37.041Z,99.90
2022-08-17T02:14:03.279Z,99.90
2022-08-17T02:19:26.165Z,99.90
2022-08-17T02:25:00.214Z,99.90
2022-08-17T02:30:59.444Z,99.90
2022-08-17T02:36:09.111Z,99.90
2022-08-17T02:41:31.576Z,99.90
2022-08-17T02:46:53.701Z,99.90
2022-08-17T02:52:15.841Z,99.90
2022-08-17T02:57:57.961Z,99.90
2022-08-17T03:03:20.209Z,99.90
2022-08-17T03:08:43.003Z,99.90
2022-08-17T03:14:05.132Z,99.90
2022-08-17T03:19:27.239Z,99.90
2022-08-17T03:24:50.433Z,99.90
2022-08-17T03:30:14.000Z,99.90
2022-08-17T03:35:37.632Z,99.90
2022-08-17T03:41:00.059Z,99.90
2022-08-17T03:46:40.696Z,99.90
2022-08-17T03:52:22.201Z,99.90
2022-08-17T03:57:44.799Z,99.90
2022-08-17T04:03:06.925Z,99.90
2022-08-17T04:08:31.889Z,99.90
2022-08-17T04:13:54.113Z,99.90
2022-08-17T04:19:16.217Z,99.90
2022-08-17T04:24:38.368Z,99.90
2022-08-17T04:30:00.964Z,99.90
2022-08-17T04:35:29.085Z,99.90
2022-08-17T04:41:10.083Z,99.90
2022-08-17T04:46:35.125Z,99.90
2022-08-17T04:52:01.199Z,99.90
2022-08-17T04:57:26.623Z,99.90
2022-08-17T05:02:50.960Z,99.90
2022-08-17T05:08:13.333Z,99.90
2022-08-17T05:13:35.584Z,99.90
2022-08-17T05:18:59.168Z,99.90
2022-08-17T05:24:41.251Z,99.90
2022-08-17T05:30:04.049Z,99.90
2022-08-17T05:35:29.486Z,99.90
2022-08-17T05:40:54.812Z,99.90
2022-08-17T05:46:23.478Z,99.90
2022-08-17T05:51:48.356Z,99.90
2022-08-17T05:57:42.389Z,99.90
2022-08-17T06:03:29.068Z,99.90
2022-08-17T06:09:00.931Z,99.90
2022-08-17T06:14:52.025Z,99.90
2022-08-17T06:20:15.968Z,99.90
2022-08-17T06:25:52.165Z,99.90
2022-08-17T06:31:29.125Z,99.90
2022-08-17T06:37:03.775Z,99.90
2022-08-17T06:43:00.810Z,99.90
2022-08-17T06:48:47.000Z,99.90
2022-08-17T06:54:39.612Z,99.90
2022-08-17T07:00:06.647Z,99.90
2022-08-17T07:05:33.853Z,99.90
2022-08-17T07:11:00.531Z,99.90
2022-08-17T07:16:32.202Z,99.90
2022-08-17T07:22:02.177Z,99.90
2022-08-17T07:27:31.333Z,99.90
2022-08-17T07:32:57.808Z,99.90
2022-08-17T07:38:28.851Z,99.90
2022-08-17T07:43:52.837Z,99.90
2022-08-17T07:49:14.901Z,99.90
2022-08-17T07:54:38.935Z,99.90
2022-08-17T08:00:01.482Z,99.90
2022-08-17T08:05:49.508Z,99.90
2022-08-17T08:11:15.249Z,99.90
2022-08-17T08:16:37.514Z,99.90
2022-08-17T08:22:08.151Z,99.90
2022-08-17T08:27:36.236Z,99.90
2022-08-17T08:33:33.874Z,99.90
2022-08-17T08:39:06.139Z,99.90
2022-08-17T08:45:00.245Z,99.90
2022-08-17T08:50:48.014Z,99.90
2022-08-17T08:56:31.708Z,99.90
2022-08-17T09:02:12.691Z,99.90
2022-08-17T09:07:41.341Z,98.20
2022-08-17T09:13:15.748Z,90.50
2022-08-17T09:19:00.906Z,91.10
2022-08-17T09:24:43.764Z,94.80
2022-08-17T09:30:10.877Z,98.10
2022-08-17T09:35:39.416Z,99.00
2022-08-17T09:41:20.564Z,94.00
2022-08-17T09:47:05.383Z,97.60
2022-08-17T09:52:30.371Z,99.90
2022-08-17T09:58:10.259Z,99.90
2022-08-17T10:03:50.809Z,99.90
2022-08-17T10:09:39.439Z,99.90
2022-08-17T10:15:13.522Z,97.60
2022-08-17T10:21:43.234Z,92.60
2022-08-17T10:27:11.490Z,92.90
2022-08-17T10:32:57.651Z,95.50
2022-08-17T10:38:46.227Z,92.90
2022-08-17T10:44:40.358Z,85.90
2022-08-17T10:50:42.616Z,91.60
2022-08-17T10:56:14.034Z,84.80
2022-08-17T11:01:36.791Z,85.40
2022-08-17T11:07:02.091Z,90.30
2022-08-17T11:12:47.705Z,91.60
2022-08-17T11:18:25.049Z,89.80
2022-08-17T11:24:11.734Z,87.60
2022-08-17T11:30:01.285Z,90.60
2022-08-17T11:35:38.297Z,90.00
2022-08-17T11:41:27.601Z,92.20
2022-08-17T11:47:27.049Z,93.10
2022-08-17T11:52:50.245Z,90.20
2022-08-17T11:58:30.890Z,86.80
2022-08-17T12:03:57.825Z,85.20
2022-08-17T12:09:27.793Z,84.10
2022-08-17T12:15:11.347Z,81.70
2022-08-17T12:20:37.209Z,83.80
2022-08-17T12:26:19.442Z,85.80
2022-08-17T12:31:47.864Z,83.80
2022-08-17T12:37:18.594Z,89.20
2022-08-17T12:42:41.530Z,90.80
2022-08-17T12:48:21.370Z,91.50
2022-08-17T12:53:52.848Z,86.00
2022-08-17T12:59:29.713Z,87.50
2022-08-17T13:04:52.775Z,84.40
2022-08-17T13:10:33.815Z,82.10
2022-08-17T13:16:06.341Z,86.10
2022-08-17T13:21:30.721Z,81.60
2022-08-17T13:26:59.244Z,80.20
2022-08-17T13:32:38.663Z,80.90
2022-08-17T13:38:08.885Z,78.80
2022-08-17T13:43:57.333Z,79.70
2022-08-17T13:49:21.167Z,78.00
2022-08-17T13:54:49.997Z,79.10
2022-08-17T14:00:35.468Z,78.10
2022-08-17T14:05:57.611Z,78.90
2022-08-17T14:11:21.435Z,80.20
2022-08-17T14:16:44.004Z,80.90
2022-08-17T14:22:11.606Z,82.60
2022-08-17T14:27:41.609Z,84.70
2022-08-17T14:33:14.373Z,83.00
2022-08-17T14:38:37.273Z,84.00
2022-08-17T14:43:59.394Z,84.90
2022-08-17T14:49:21.541Z,86.00
2022-08-17T14:54:45.796Z,88.80
2022-08-17T15:00:09.251Z,88.90
2022-08-17T15:05:35.423Z,90.70
2022-08-17T15:10:57.757Z,90.30
2022-08-17T15:16:20.562Z,87.80
2022-08-17T15:21:42.829Z,89.80
2022-08-17T15:27:05.076Z,88.60
2022-08-17T15:32:33.108Z,88.90
2022-08-17T15:37:56.595Z,88.00
2022-08-17T15:43:27.600Z,88.60
2022-08-17T15:48:52.600Z,90.00
2022-08-17T15:54:18.854Z,90.20
2022-08-17T15:59:44.872Z,89.60
2022-08-17T16:05:12.808Z,89.90
2022-08-17T16:10:36.230Z,91.10
2022-08-17T16:15:58.733Z,93.10
2022-08-17T16:21:27.097Z,94.40
2022-08-17T16:26:49.220Z,95.40
2022-08-17T16:32:21.691Z,93.70
2022-08-17T16:37:57.189Z,94.60
2022-08-17T16:43:20.192Z,94.90
2022-08-17T16:48:44.469Z,99.90
2022-08-17T16:54:07.369Z,99.90
2022-08-17T16:59:31.063Z,99.90
2022-08-17T17:05:08.041Z,99.90
2022-08-17T17:10:44.891Z,99.90
2022-08-17T17:16:21.713Z,99.90
2022-08-17T17:21:48.161Z,99.90
2022-08-17T17:27:19.186Z,99.90
2022-08-17T17:32:58.755Z,99.90
2022-08-17T17:38:31.511Z,99.90
2022-08-17T17:44:03.921Z,99.90
2022-08-17T17:49:29.824Z,99.90
2022-08-17T17:55:22.004Z,99.90
2022-08-17T18:00:59.920Z,99.90
2022-08-17T18:06:45.468Z,99.90
2022-08-17T18:12:24.792Z,99.90
2022-08-17T18:18:26.276Z,99.90
2022-08-17T18:23:51.703Z,99.90
2022-08-17T18:29:34.323Z,99.90
2022-08-17T18:35:02.514Z,99.90
2022-08-17T18:40:30.115Z,99.90
2022-08-17T18:45:56.161Z,99.90
2022-08-17T18:51:40.752Z,99.90
2022-08-17T18:57:06.761Z,99.90
2022-08-17T19:02:45.018Z,99.90
2022-08-17T19:08:32.120Z,99.90
2022-08-17T19:14:03.124Z,99.90
2022-08-17T19:19:38.570Z,99.90
2022-08-17T19:25:16.174Z,99.90
2022-08-17T19:30:39.478Z,99.90
2022-08-17T19:36:09.848Z,99.90
2022-08-17T19:41:44.674Z,99.90
2022-08-17T19:47:13.061Z,99.90
2022-08-17T19:52:55.698Z,99.90
2022-08-17T19:58:45.210Z,99.90
2022-08-17T20:04:47.008Z,99.90
2022-08-17T20:10:17.173Z,99.90
2022-08-17T20:15:42.531Z,99.90
2022-08-17T20:21:26.253Z,99.90
2022-08-17T20:26:58.862Z,99.90
2022-08-17T20:32:24.148Z,99.90
2022-08-17T20:38:08.645Z,99.90
2022-08-17T20:43:33.754Z,99.90
2022-08-17T20:49:04.498Z,99.90
2022-08-17T20:54:53.644Z,99.90
2022-08-17T21:00:27.824Z,99.90
2022-08-17T21:06:15.406Z,99.90
2022-08-17T21:12:02.347Z,99.90
2022-08-17T21:17:35.979Z,99.90
2022-08-17T21:23:07.888Z,99.90
2022-08-17T21:28:34.241Z,99.90
2022-08-17T21:34:14.726Z,99.90
2022-08-17T21:39:40.918Z,99.90
2022-08-17T21:45:25.668Z,99.90
2022-08-17T21:50:57.768Z,99.90
2022-08-17T21:56:25.764Z,99.90
2022-08-17T22:01:53.103Z,99.90
2022-08-17T22:07:15.300Z,99.90
2022-08-17T22:12:37.483Z,99.90
2022-08-17T22:18:05.332Z,99.90
2022-08-17T22:23:59.355Z,99.90
2022-08-17T22:29:57.245Z,99.90
2022-08-17T22:35:28.940Z,99.90
2022-08-17T22:41:12.436Z,99.90
2022-08-17T22:46:48.661Z,99.90
2022-08-17T22:52:16.761Z,99.90
2022-08-17T22:58:04.452Z,99.90
2022-08-17T23:03:28.056Z,99.90
2022-08-17T23:08:54.902Z,99.90
2022-08-17T23:14:20.259Z,99.90
2022-08-17T23:19:42.483Z,99.90
2022-08-17T23:25:05.555Z,99.90
2022-08-17T23:30:30.307Z,99.90
2022-08-17T23:35:53.735Z,99.90
2022-08-17T23:41:21.423Z,99.90
2022-08-17T23:46:44.380Z,99.90
2022-08-17T23:52:10.025Z,99.90
2022-08-17T23:57:33.481Z,99.90
